CheckWX is a tool to help pilots better visualize weather data.  It is not intended as a substitute for an official pre-flight weather briefing.

19:14:31 UTC

KMLB METAR
Melbourne International Airport
Melbourne, Florida, USA
Current

22 mins ago

KMLB 261853Z 08008KT 10SM CLR 29/22 A3012 RMK AO2 SLP199 T02940222 $
Observed
May-26 @ 18:53 UTC
Wind
  • 080° at 8 KTS
Visibility
10 SM
Flight Rules
VFR
Cloud Levels
  • Clear skies
Temperature
29°C / 84°F
Dewpoint
22°C / 72°F
Heat Index
32°C / 89°F
Humidity
66%
Altimeter
30.12" Hg
Pressure
1020.02 hPa
Previous

1 hour ago

KMLB 261753Z 07010KT 10SM CLR 30/22 A3013 RMK AO2 SLP203 T03000222 10300 20261 58012 $
Observed
May-26 @ 17:53 UTC
Wind
  • 070° at 10 KTS
Visibility
10 SM
Flight Rules
VFR
Cloud Levels
  • Clear skies
Temperature
30°C / 86°F
Dewpoint
22°C / 72°F
Heat Index
33°C / 92°F
Humidity
62%
Altimeter
30.13" Hg
Pressure
1020.32 hPa
Previous

2 hours ago

KMLB 261653Z 07009KT 10SM SCT030 29/22 A3016 RMK AO2 SLP210 T02940222 $
Observed
May-26 @ 16:53 UTC
Wind
  • 070° at 9 KTS
Visibility
10 SM
Flight Rules
VFR
Cloud Levels
  • Scattered at 3,000' AGL
Temperature
29°C / 84°F
Dewpoint
22°C / 72°F
Heat Index
32°C / 89°F
Humidity
66%
Altimeter
30.16" Hg
Pressure
1021.32 hPa